Time;durP1;ratioP1;P1;durP2;ratioP2;P2;SDS_P1;SDS_P2;PMS_P1;PMS_P2;Temp;Humidity;BMP_temperature;BMP_pressure;BME280_temperature;BME280_humidity;BME280_pressure;Samples;Min_cycle;Max_cycle;Signal;HPM_P1;HPM_P2
2023/07/25 00:00:28;;;;;;;15.00;3.33;;;13.00;99.90;;;;;;5009852;28;20121;-82
2023/07/25 00:02:54;;;;;;;7.55;2.58;;;13.00;99.90;;;;;;5009278;28;20426;-81
2023/07/25 00:05:19;;;;;;;10.75;2.40;;;13.00;99.90;;;;;;4992664;28;20136;-81
2023/07/25 00:07:45;;;;;;;11.18;3.00;;;12.90;99.90;;;;;;5010453;28;20497;-81
2023/07/25 00:10:11;;;;;;;13.23;2.97;;;12.90;99.90;;;;;;4975309;28;20065;-81
2023/07/25 00:12:37;;;;;;;8.55;2.40;;;12.90;99.90;;;;;;5010116;28;20046;-81
2023/07/25 00:15:04;;;;;;;12.77;2.63;;;12.90;99.90;;;;;;4992671;28;20127;-81
2023/07/25 00:17:30;;;;;;;13.15;3.47;;;12.80;99.90;;;;;;5009198;28;20121;-82
2023/07/25 00:19:55;;;;;;;19.15;2.92;;;12.70;99.90;;;;;;4992299;28;20136;-82
2023/07/25 00:22:21;;;;;;;12.15;2.80;;;12.70;99.90;;;;;;5010028;28;20030;-82
2023/07/25 00:24:47;;;;;;;14.38;2.78;;;12.70;99.90;;;;;;4975065;28;20950;-81
2023/07/25 00:27:12;;;;;;;16.20;2.95;;;12.70;99.90;;;;;;4991548;28;20046;-81
2023/07/25 00:29:38;;;;;;;19.05;3.13;;;12.80;99.90;;;;;;5009697;28;20133;-82
2023/07/25 00:32:04;;;;;;;12.10;3.05;;;12.80;99.90;;;;;;5008898;28;20124;-82
2023/07/25 00:34:30;;;;;;;13.70;3.03;;;12.80;99.90;;;;;;5009189;28;20078;-82
2023/07/25 00:36:56;;;;;;;13.75;2.75;;;12.80;99.90;;;;;;4992318;28;20096;-81
2023/07/25 00:39:22;;;;;;;14.52;3.13;;;12.80;99.90;;;;;;4990677;28;20057;-82
2023/07/25 00:41:47;;;;;;;15.48;3.45;;;12.80;99.90;;;;;;4991591;28;20053;-82
2023/07/25 00:44:13;;;;;;;11.23;3.00;;;12.80;99.90;;;;;;5010249;28;20065;-82
2023/07/25 00:46:42;;;;;;;12.45;2.60;;;12.80;99.90;;;;;;5007500;28;20136;-81
2023/07/25 00:49:08;;;;;;;15.73;3.22;;;12.80;99.90;;;;;;4992112;28;20145;-81
2023/07/25 00:51:34;;;;;;;12.55;3.00;;;12.80;99.90;;;;;;4991285;28;20092;-81
2023/07/25 00:54:01;;;;;;;10.07;2.72;;;12.80;99.90;;;;;;4991035;28;20541;-82
2023/07/25 00:56:27;;;;;;;11.10;2.70;;;12.80;99.90;;;;;;4990558;28;20053;-81
2023/07/25 00:58:54;;;;;;;14.85;2.97;;;12.80;99.90;;;;;;5008899;28;20162;-81
2023/07/25 01:01:21;;;;;;;21.17;3.30;;;12.80;99.90;;;;;;4975247;28;20081;-82
2023/07/25 01:03:48;;;;;;;12.77;3.30;;;12.80;99.90;;;;;;4991266;28;20140;-82
2023/07/25 01:06:15;;;;;;;9.32;3.30;;;12.80;99.90;;;;;;4991005;28;20124;-82
2023/07/25 01:08:52;;;;;;;13.05;3.00;;;12.80;99.90;;;;;;4990943;28;20050;-82
2023/07/25 01:11:18;;;;;;;13.95;3.80;;;12.80;99.90;;;;;;4991180;28;20058;-81
2023/07/25 01:13:45;;;;;;;10.75;2.83;;;12.80;99.90;;;;;;4990464;28;20048;-81
2023/07/25 01:16:16;;;;;;;11.77;2.47;;;12.80;99.90;;;;;;4991162;28;20135;-81
2023/07/25 01:18:43;;;;;;;8.90;2.40;;;12.70;99.90;;;;;;4974742;28;20041;-81
2023/07/25 01:21:09;;;;;;;12.00;2.63;;;12.70;99.90;;;;;;4990586;28;20042;-81
2023/07/25 01:23:37;;;;;;;9.35;2.42;;;12.60;99.90;;;;;;5008557;28;20040;-81
2023/07/25 01:26:03;;;;;;;11.80;2.22;;;12.60;99.90;;;;;;4991095;28;20503;-81
2023/07/25 01:28:29;;;;;;;10.73;2.55;;;12.50;99.90;;;;;;4973663;28;20520;-82
2023/07/25 01:30:56;;;;;;;20.30;2.83;;;12.50;99.90;;;;;;4990630;28;20092;-81
2023/07/25 01:33:22;;;;;;;13.52;3.05;;;12.50;99.90;;;;;;4974478;28;20050;-82
2023/07/25 01:35:48;;;;;;;12.77;3.20;;;12.50;99.90;;;;;;4973882;28;20040;-81
2023/07/25 01:38:14;;;;;;;8.13;2.60;;;12.60;99.90;;;;;;5008914;28;20046;-82
2023/07/25 01:40:40;;;;;;;11.35;3.30;;;12.70;99.90;;;;;;4989009;28;20053;-82
2023/07/25 01:43:06;;;;;;;16.33;3.05;;;12.70;99.90;;;;;;4974196;28;20076;-82
2023/07/25 01:45:32;;;;;;;9.82;3.10;;;12.80;99.90;;;;;;5007915;28;20045;-82
2023/07/25 01:47:59;;;;;;;14.48;2.95;;;12.90;99.90;;;;;;4974856;28;20049;-81
2023/07/25 01:50:26;;;;;;;14.30;3.00;;;13.00;99.90;;;;;;5007952;28;20406;-82
2023/07/25 01:52:51;;;;;;;14.90;3.15;;;13.00;99.90;;;;;;4990659;28;20042;-82
2023/07/25 01:55:17;;;;;;;8.27;2.80;;;13.10;99.90;;;;;;5008356;28;20509;-81
2023/07/25 01:57:43;;;;;;;15.18;2.92;;;13.10;99.90;;;;;;4989306;28;20058;-81
2023/07/25 02:00:09;;;;;;;15.55;3.45;;;13.10;99.90;;;;;;4974958;28;20133;-81
2023/07/25 02:02:35;;;;;;;11.95;2.88;;;13.20;99.90;;;;;;4990037;28;20169;-81
2023/07/25 02:05:00;;;;;;;9.73;2.72;;;13.20;99.90;;;;;;5008200;28;20473;-82
2023/07/25 02:07:26;;;;;;;12.43;3.22;;;13.20;99.90;;;;;;4990406;28;20041;-81
2023/07/25 02:09:51;;;;;;;15.32;3.33;;;13.10;99.90;;;;;;5007131;28;20045;-82
2023/07/25 02:12:17;;;;;;;12.43;2.90;;;13.20;99.90;;;;;;4990362;28;20049;-81
2023/07/25 02:14:43;;;;;;;16.92;3.63;;;13.10;99.90;;;;;;4990998;28;20108;-82
2023/07/25 02:17:09;;;;;;;11.27;3.38;;;13.10;99.90;;;;;;4989044;28;20482;-81
2023/07/25 02:19:35;;;;;;;11.10;3.25;;;13.10;99.90;;;;;;5008290;28;20377;-82
2023/07/25 02:22:01;;;;;;;11.90;3.13;;;13.20;99.90;;;;;;4989880;28;20052;-82
2023/07/25 02:24:26;;;;;;;13.07;3.45;;;13.20;99.90;;;;;;4989938;28;20054;-82
2023/07/25 02:26:52;;;;;;;14.40;3.08;;;13.20;99.90;;;;;;4990092;28;20080;-81
2023/07/25 02:29:18;;;;;;;14.98;3.58;;;13.20;99.90;;;;;;4990493;28;20501;-82
2023/07/25 02:31:44;;;;;;;14.23;3.13;;;13.20;99.90;;;;;;4988321;28;20038;-82
2023/07/25 02:34:09;;;;;;;12.43;2.90;;;13.20;99.90;;;;;;5007658;28;20103;-81
2023/07/25 02:36:35;;;;;;;11.93;3.00;;;13.20;99.90;;;;;;4973728;28;20038;-81
2023/07/25 02:39:01;;;;;;;10.98;3.22;;;13.20;99.90;;;;;;4989002;28;20541;-82
2023/07/25 02:41:26;;;;;;;11.98;3.15;;;13.20;99.90;;;;;;4978979;28;20128;-81
2023/07/25 02:43:52;;;;;;;13.18;3.25;;;13.20;99.90;;;;;;4973701;28;20103;-81
2023/07/25 02:46:18;;;;;;;14.63;3.60;;;13.20;99.90;;;;;;4988466;28;20120;-82
2023/07/25 02:48:44;;;;;;;11.50;3.22;;;13.10;99.90;;;;;;4989712;28;20054;-81
2023/07/25 02:51:09;;;;;;;14.45;2.83;;;13.20;99.90;;;;;;4989775;28;20493;-81
2023/07/25 02:53:35;;;;;;;14.70;3.13;;;13.20;99.90;;;;;;4988540;28;20045;-81
2023/07/25 02:56:00;;;;;;;13.48;3.03;;;13.20;99.90;;;;;;4988962;28;20104;-81
2023/07/25 02:58:26;;;;;;;15.35;3.08;;;13.20;99.90;;;;;;4988709;28;20439;-82
2023/07/25 03:00:52;;;;;;;13.98;3.00;;;13.20;99.90;;;;;;4989124;28;20046;-81
2023/07/25 03:03:18;;;;;;;13.15;3.63;;;13.20;99.90;;;;;;4989814;28;20485;-82
2023/07/25 03:05:43;;;;;;;14.60;3.53;;;13.30;99.90;;;;;;4972037;28;20080;-82
2023/07/25 03:08:09;;;;;;;11.57;3.13;;;13.30;99.90;;;;;;4973714;28;20042;-82
2023/07/25 03:10:35;;;;;;;15.90;3.15;;;13.40;99.90;;;;;;4989348;28;20050;-82
2023/07/25 03:13:01;;;;;;;13.35;3.22;;;13.40;99.90;;;;;;5006760;28;20461;-82
2023/07/25 03:15:26;;;;;;;14.70;3.65;;;13.40;99.90;;;;;;5006652;28;20125;-82
2023/07/25 03:17:52;;;;;;;17.65;3.25;;;13.40;99.90;;;;;;4973466;28;20208;-82
2023/07/25 03:20:18;;;;;;;12.13;2.95;;;13.50;99.90;;;;;;4993043;28;20061;-82
2023/07/25 03:22:44;;;;;;;11.65;2.97;;;13.50;99.90;;;;;;4976890;28;20046;-82
2023/07/25 03:25:09;;;;;;;12.57;2.28;;;13.50;99.90;;;;;;4993638;28;20057;-83
2023/07/25 03:27:36;;;;;;;10.52;2.20;;;13.50;99.90;;;;;;4992023;28;20564;-82
2023/07/25 03:30:02;;;;;;;13.77;2.40;;;13.50;99.90;;;;;;5010847;28;20061;-82
2023/07/25 03:32:28;;;;;;;10.57;2.33;;;13.50;99.90;;;;;;5010567;28;20498;-82
2023/07/25 03:34:53;;;;;;;11.18;2.35;;;13.50;99.90;;;;;;4976699;28;20050;-83
2023/07/25 03:37:19;;;;;;;10.48;2.40;;;13.50;99.90;;;;;;4976657;28;20046;-83
2023/07/25 03:39:45;;;;;;;12.30;2.53;;;13.40;99.90;;;;;;4992564;28;20046;-82
2023/07/25 03:42:10;;;;;;;15.82;2.50;;;13.40;99.90;;;;;;4976001;28;20490;-82
2023/07/25 03:44:36;;;;;;;10.63;2.90;;;13.40;99.90;;;;;;5010887;28;20367;-82
2023/07/25 03:47:02;;;;;;;9.52;2.92;;;13.40;99.90;;;;;;4992778;28;20056;-82
2023/07/25 03:49:28;;;;;;;15.70;2.83;;;13.40;99.90;;;;;;5009987;28;20045;-82
2023/07/25 03:51:53;;;;;;;13.85;2.85;;;13.50;99.90;;;;;;5010715;28;20049;-82
2023/07/25 03:54:23;;;;;;;11.27;2.55;;;13.50;99.90;;;;;;4976532;28;20425;-82
2023/07/25 03:56:50;;;;;;;14.77;2.70;;;13.50;99.90;;;;;;5009065;28;20058;-82
2023/07/25 03:59:16;;;;;;;11.80;2.65;;;13.50;99.90;;;;;;4992419;28;20481;-82
2023/07/25 04:01:42;;;;;;;11.70;3.00;;;13.50;99.90;;;;;;4974831;28;20070;-82
2023/07/25 04:04:08;;;;;;;14.88;2.90;;;13.50;99.90;;;;;;5010352;28;20038;-82
2023/07/25 04:06:33;;;;;;;10.18;2.70;;;13.50;99.90;;;;;;4992084;28;20096;-82
2023/07/25 04:08:59;;;;;;;12.25;3.05;;;13.50;99.90;;;;;;4975733;28;20533;-82
2023/07/25 04:11:25;;;;;;;11.50;2.88;;;13.50;99.90;;;;;;5009114;28;20038;-83
2023/07/25 04:13:50;;;;;;;7.55;2.22;;;13.40;99.90;;;;;;5010292;28;20046;-83
2023/07/25 04:16:16;;;;;;;13.27;2.78;;;13.40;99.90;;;;;;5009403;28;20045;-82
2023/07/25 04:18:42;;;;;;;15.32;3.00;;;13.40;99.90;;;;;;4975450;28;20060;-82
2023/07/25 04:21:07;;;;;;;12.45;2.83;;;13.30;99.90;;;;;;4976308;28;20096;-82
2023/07/25 04:23:33;;;;;;;17.33;3.67;;;13.40;99.90;;;;;;4991148;28;20049;-82
2023/07/25 04:25:58;;;;;;;14.70;3.13;;;13.30;99.90;;;;;;4991682;28;20044;-82
2023/07/25 04:28:24;;;;;;;8.52;2.40;;;13.30;99.90;;;;;;5009878;28;20112;-82
2023/07/25 04:30:50;;;;;;;10.60;2.72;;;13.30;99.90;;;;;;4974240;28;20713;-82
2023/07/25 04:33:15;;;;;;;12.10;2.60;;;13.30;99.90;;;;;;5008336;28;20445;-82
2023/07/25 04:35:45;;;;;;;10.20;2.75;;;13.30;99.90;;;;;;4989088;28;20060;-83
2023/07/25 04:38:14;;;;;;;16.88;3.65;;;13.30;99.90;;;;;;5009039;28;20046;-82
2023/07/25 04:40:40;;;;;;;11.63;2.65;;;13.30;99.90;;;;;;4974152;28;20054;-82
2023/07/25 04:43:05;;;;;;;11.05;2.50;;;13.40;99.90;;;;;;4992376;28;20041;-83
2023/07/25 04:45:31;;;;;;;17.92;3.30;;;13.40;99.90;;;;;;4990721;28;20082;-83
2023/07/25 04:47:57;;;;;;;10.55;2.42;;;13.40;99.90;;;;;;4974551;28;20349;-83
2023/07/25 04:50:22;;;;;;;10.27;2.67;;;13.50;99.90;;;;;;4973547;28;20493;-83
2023/07/25 04:52:48;;;;;;;10.60;2.92;;;13.50;99.90;;;;;;4988754;28;20057;-83
2023/07/25 04:55:14;;;;;;;11.57;2.78;;;13.50;99.90;;;;;;4989860;28;20314;-82
2023/07/25 04:57:39;;;;;;;19.73;3.20;;;13.50;99.90;;;;;;4988634;28;20069;-83
2023/07/25 05:00:06;;;;;;;9.73;2.88;;;13.50;99.90;;;;;;5006739;28;20057;-83
2023/07/25 05:02:32;;;;;;;14.80;3.03;;;13.60;99.90;;;;;;5007048;28;20464;-83
2023/07/25 05:04:58;;;;;;;9.10;2.60;;;13.60;99.90;;;;;;4974676;28;20133;-82
2023/07/25 05:07:24;;;;;;;17.60;2.67;;;13.70;99.90;;;;;;4974850;28;20038;-82
2023/07/25 05:09:49;;;;;;;11.45;2.20;;;13.80;99.90;;;;;;4975316;28;20064;-82
2023/07/25 05:12:15;;;;;;;10.73;2.63;;;13.90;99.90;;;;;;4973570;28;20042;-82
2023/07/25 05:14:41;;;;;;;14.63;2.53;;;14.00;99.90;;;;;;4974863;28;20077;-83
2023/07/25 05:17:07;;;;;;;10.10;2.65;;;14.10;99.90;;;;;;4990782;28;20042;-83
2023/07/25 05:19:33;;;;;;;12.45;1.90;;;14.10;99.90;;;;;;4990326;28;20065;-82
2023/07/25 05:21:58;;;;;;;9.65;2.20;;;14.10;99.90;;;;;;5008927;28;20120;-83
2023/07/25 05:24:25;;;;;;;15.88;2.13;;;14.10;99.90;;;;;;4974441;28;20060;-83
2023/07/25 05:26:51;;;;;;;13.80;2.20;;;14.10;99.90;;;;;;4990186;28;20056;-83
2023/07/25 05:29:16;;;;;;;10.35;2.25;;;14.10;99.90;;;;;;4975146;28;20482;-83
2023/07/25 05:31:42;;;;;;;11.27;2.10;;;14.10;99.90;;;;;;4973779;28;20046;-82
2023/07/25 05:34:08;;;;;;;13.73;2.40;;;14.10;99.90;;;;;;5008813;28;20508;-82
2023/07/25 05:36:33;;;;;;;13.77;2.00;;;14.10;99.90;;;;;;4990433;28;20045;-82
2023/07/25 05:38:59;;;;;;;11.32;2.13;;;14.10;99.90;;;;;;4974367;28;20473;-82
2023/07/25 05:41:25;;;;;;;13.73;2.40;;;14.00;99.90;;;;;;4988521;28;20030;-82
2023/07/25 05:43:51;;;;;;;10.30;2.20;;;14.10;99.90;;;;;;4990845;28;20046;-83
2023/07/25 05:46:16;;;;;;;13.52;2.33;;;14.10;99.90;;;;;;4990605;28;20091;-83
2023/07/25 05:48:42;;;;;;;10.38;1.95;;;14.10;99.90;;;;;;4972873;28;20046;-83
2023/07/25 05:51:09;;;;;;;15.30;2.08;;;14.10;99.90;;;;;;5008225;28;20107;-83
2023/07/25 05:53:36;;;;;;;9.13;2.20;;;14.10;99.90;;;;;;4974390;28;20120;-83
2023/07/25 05:56:01;;;;;;;9.95;2.10;;;14.10;99.90;;;;;;4972853;28;20563;-82
2023/07/25 05:58:28;;;;;;;12.07;2.10;;;14.10;99.90;;;;;;4974372;28;20041;-83
2023/07/25 06:00:54;;;;;;;7.20;1.80;;;14.20;99.90;;;;;;5000774;28;20048;-83
2023/07/25 06:03:19;;;;;;;9.38;1.63;;;14.30;99.90;;;;;;4972321;28;20050;-83
2023/07/25 06:05:45;;;;;;;9.93;1.85;;;14.40;99.90;;;;;;4989265;28;20077;-82
2023/07/25 06:08:11;;;;;;;9.68;1.45;;;14.50;99.90;;;;;;4974119;28;20053;-83
2023/07/25 06:10:38;;;;;;;11.43;2.05;;;14.70;99.90;;;;;;4972331;28;20049;-82
2023/07/25 06:13:04;;;;;;;11.00;1.73;;;14.80;99.90;;;;;;5007276;28;20116;-82
2023/07/25 06:15:33;;;;;;;10.50;1.80;;;14.90;99.90;;;;;;4971442;28;20130;-83
2023/07/25 06:18:00;;;;;;;11.85;1.88;;;15.00;99.90;;;;;;4972491;28;20038;-82
2023/07/25 06:20:26;;;;;;;8.57;1.45;;;15.00;99.90;;;;;;4988716;28;20041;-83
2023/07/25 06:22:52;;;;;;;17.08;2.33;;;15.10;99.90;;;;;;4971743;28;20049;-83
2023/07/25 06:25:18;;;;;;;10.40;1.70;;;15.20;99.90;;;;;;4988531;28;20405;-82
2023/07/25 06:27:43;;;;;;;12.05;1.75;;;15.20;99.90;;;;;;4987864;28;20053;-83
2023/07/25 06:30:09;;;;;;;8.40;1.63;;;15.30;99.90;;;;;;4971568;28;20033;-83
2023/07/25 06:32:37;;;;;;;9.07;1.52;;;15.30;99.90;;;;;;4987943;28;20038;-82
2023/07/25 06:35:04;;;;;;;8.07;1.30;;;15.40;99.90;;;;;;4988162;28;20104;-82
2023/07/25 06:37:33;;;;;;;10.93;1.92;;;15.40;99.90;;;;;;4972037;28;20116;-82
2023/07/25 06:40:02;;;;;;;8.95;1.30;;;15.50;99.90;;;;;;4989591;28;20045;-83
2023/07/25 06:42:28;;;;;;;8.98;1.52;;;15.60;99.90;;;;;;4973219;28;20104;-83
2023/07/25 06:44:54;;;;;;;8.13;1.38;;;15.70;99.90;;;;;;4972498;28;20060;-82
2023/07/25 06:47:20;;;;;;;9.82;1.23;;;15.80;99.90;;;;;;4989055;28;20049;-82
2023/07/25 06:49:46;;;;;;;7.28;1.05;;;15.90;99.90;;;;;;5007526;28;20049;-85
2023/07/25 06:52:11;;;;;;;7.68;0.98;;;15.90;99.90;;;;;;4988016;28;20049;-84
2023/07/25 06:54:38;;;;;;;10.68;1.15;;;16.00;99.90;;;;;;4973621;28;20064;-82
2023/07/25 06:57:04;;;;;;;6.00;0.85;;;16.10;99.90;;;;;;4988939;28;20057;-83
2023/07/25 06:59:30;;;;;;;7.65;1.15;;;16.10;99.90;;;;;;4994178;28;20038;-81
2023/07/25 07:01:56;;;;;;;8.55;1.25;;;16.20;99.90;;;;;;4973125;28;20045;-81
2023/07/25 07:04:22;;;;;;;10.63;1.33;;;16.30;99.90;;;;;;4989358;28;20465;-80
2023/07/25 07:06:47;;;;;;;9.80;1.10;;;16.30;99.90;;;;;;5006284;28;20057;-81
2023/07/25 07:09:13;;;;;;;9.63;1.38;;;16.40;99.90;;;;;;4989769;28;20080;-82
2023/07/25 07:11:40;;;;;;;9.13;1.17;;;16.50;99.90;;;;;;4988320;28;20587;-82
2023/07/25 07:14:06;;;;;;;4.25;1.00;;;16.60;99.90;;;;;;4974169;28;20393;-85
2023/07/25 07:16:32;;;;;;;10.52;1.02;;;16.70;99.90;;;;;;4988835;28;20383;-83
2023/07/25 07:18:58;;;;;;;7.40;1.23;;;16.60;99.90;;;;;;4989185;28;20056;-83
2023/07/25 07:21:24;;;;;;;5.13;1.00;;;16.70;99.90;;;;;;4988668;28;20446;-81
2023/07/25 07:23:49;;;;;;;7.63;0.82;;;16.70;99.90;;;;;;4989630;28;20056;-82
2023/07/25 07:26:15;;;;;;;5.88;1.00;;;16.80;99.90;;;;;;5006760;28;20065;-82
2023/07/25 07:28:41;;;;;;;8.13;1.45;;;16.90;99.90;;;;;;4989181;28;20069;-81
2023/07/25 07:31:09;;;;;;;8.32;1.00;;;16.90;99.90;;;;;;4989894;28;20042;-84
2023/07/25 07:33:35;;;;;;;6.45;0.82;;;17.00;99.90;;;;;;4972090;28;20038;-90
2023/07/25 07:36:01;;;;;;;6.78;1.13;;;17.00;99.90;;;;;;4973101;28;20045;-85
2023/07/25 07:38:27;;;;;;;8.73;0.93;;;17.00;99.90;;;;;;4971477;28;20037;-85
2023/07/25 07:40:53;;;;;;;7.95;0.77;;;17.20;99.90;;;;;;4999040;28;20046;-82
2023/07/25 07:43:19;;;;;;;10.82;1.08;;;17.30;99.90;;;;;;4987517;28;20037;-84
2023/07/25 07:45:45;;;;;;;8.70;0.68;;;17.60;99.90;;;;;;4986543;28;20045;-84
2023/07/25 07:48:11;;;;;;;8.18;1.20;;;17.50;99.90;;;;;;4970546;28;20045;-84
2023/07/25 07:50:36;;;;;;;4.88;0.95;;;17.40;99.90;;;;;;4986706;28;20044;-84
2023/07/25 07:53:03;;;;;;;5.53;1.00;;;17.40;99.90;;;;;;4972122;28;20085;-84
2023/07/25 07:55:29;;;;;;;8.80;1.00;;;17.40;99.90;;;;;;4970772;28;20050;-85
2023/07/25 07:57:55;;;;;;;6.47;1.08;;;17.50;99.90;;;;;;4970055;28;20057;-84
2023/07/25 08:00:21;;;;;;;5.68;0.70;;;17.50;99.90;;;;;;4970569;28;20393;-83
2023/07/25 08:02:47;;;;;;;7.05;0.90;;;17.60;99.90;;;;;;4986219;28;20041;-83
2023/07/25 08:05:13;;;;;;;8.38;0.68;;;17.60;99.90;;;;;;4974067;28;20389;-83
2023/07/25 08:07:40;;;;;;;8.63;1.10;;;17.80;99.90;;;;;;4974134;28;20372;-83
2023/07/25 08:10:06;;;;;;;9.32;0.90;;;18.00;99.90;;;;;;5008543;28;20133;-83
2023/07/25 08:12:32;;;;;;;8.73;0.93;;;18.00;99.90;;;;;;4992392;28;20056;-84
2023/07/25 08:14:58;;;;;;;8.27;0.95;;;18.00;99.90;;;;;;4975343;28;20057;-83
2023/07/25 08:17:24;;;;;;;13.02;1.30;;;18.00;99.90;;;;;;4992200;28;20053;-82
2023/07/25 08:19:50;;;;;;;11.70;1.25;;;18.00;99.90;;;;;;4992640;28;20149;-82
2023/07/25 08:22:16;;;;;;;3.70;0.60;;;17.90;99.90;;;;;;4975260;28;20052;-83
2023/07/25 08:24:42;;;;;;;8.15;1.13;;;17.70;99.90;;;;;;4991949;28;20366;-82
2023/07/25 08:27:08;;;;;;;6.35;0.82;;;17.60;99.90;;;;;;4991819;28;20049;-82
2023/07/25 08:29:39;;;;;;;5.32;0.88;;;17.60;99.90;;;;;;4975424;28;20141;-84
2023/07/25 08:32:06;;;;;;;6.80;1.05;;;17.80;99.90;;;;;;4991535;28;20153;-83
2023/07/25 08:34:32;;;;;;;5.50;0.90;;;18.00;99.90;;;;;;4992505;28;20117;-83
2023/07/25 08:36:57;;;;;;;6.07;0.60;;;18.20;99.90;;;;;;5009060;28;20587;-83
2023/07/25 08:39:23;;;;;;;6.65;0.90;;;18.30;99.90;;;;;;4975220;28;20366;-83
2023/07/25 08:41:53;;;;;;;6.60;0.73;;;18.50;99.90;;;;;;5009227;28;20072;-84
2023/07/25 08:44:23;;;;;;;5.97;0.88;;;18.70;99.90;;;;;;4974813;28;20120;-83
2023/07/25 08:46:53;;;;;;;6.80;0.70;;;18.80;99.90;;;;;;5009756;28;20076;-83
2023/07/25 08:49:24;;;;;;;7.20;0.77;;;18.90;99.90;;;;;;4975868;28;20076;-83
2023/07/25 08:51:54;;;;;;;10.85;0.80;;;19.00;99.90;;;;;;4991545;28;20049;-83
2023/07/25 08:54:36;;;;;;;4.55;0.80;;;18.90;99.90;;;;;;4992682;28;20512;-83
2023/07/25 08:57:04;;;;;;;6.03;0.93;;;18.60;99.90;;;;;;4992019;28;20064;-84
2023/07/25 08:59:31;;;;;;;5.95;1.20;;;18.40;99.90;;;;;;4980109;28;20328;-83
2023/07/25 09:01:57;;;;;;;6.90;1.05;;;18.30;99.90;;;;;;4991559;28;20042;-84
2023/07/25 09:04:25;;;;;;;6.80;0.80;;;18.50;99.90;;;;;;4975456;28;20065;-84
2023/07/25 09:06:51;;;;;;;5.63;1.10;;;18.70;99.90;;;;;;5008884;28;20045;-83
2023/07/25 09:09:17;;;;;;;6.40;1.05;;;18.70;99.90;;;;;;5009993;28;20161;-84
2023/07/25 09:11:44;;;;;;;10.93;0.88;;;18.70;99.90;;;;;;4973710;28;20041;-83
2023/07/25 09:14:11;;;;;;;6.28;0.98;;;18.90;99.90;;;;;;4992703;28;20092;-84
2023/07/25 09:16:36;;;;;;;3.00;0.70;;;19.10;99.90;;;;;;4990277;28;20112;-83
2023/07/25 09:19:02;;;;;;;4.43;0.45;;;19.30;99.90;;;;;;4974834;28;20493;-83
2023/07/25 09:21:28;;;;;;;7.00;1.48;;;19.30;99.90;;;;;;5009223;28;20041;-83
2023/07/25 09:23:59;;;;;;;6.78;1.00;;;19.20;99.90;;;;;;4975174;28;20350;-83
2023/07/25 09:26:27;;;;;;;8.60;1.17;;;19.30;99.90;;;;;;4990602;28;20046;-83
2023/07/25 09:28:59;;;;;;;8.77;1.13;;;19.40;99.90;;;;;;4991625;28;20053;-82
2023/07/25 09:31:26;;;;;;;9.27;1.00;;;19.50;99.90;;;;;;4974787;28;20085;-83
2023/07/25 09:33:54;;;;;;;4.47;0.73;;;19.50;99.90;;;;;;5007987;28;20121;-84
2023/07/25 09:36:20;;;;;;;6.13;0.80;;;19.50;99.90;;;;;;4991002;28;20139;-83
2023/07/25 09:38:50;;;;;;;3.90;0.63;;;19.40;99.90;;;;;;4990889;28;20042;-83
2023/07/25 09:41:21;;;;;;;5.10;0.77;;;19.30;99.90;;;;;;4989643;28;20048;-83
2023/07/25 09:43:47;;;;;;;7.40;0.88;;;19.10;99.90;;;;;;4974083;28;20050;-81
2023/07/25 09:46:13;;;;;;;5.75;0.80;;;19.00;99.90;;;;;;4990131;28;20052;-80
2023/07/25 09:48:47;;;;;;;6.10;1.05;;;19.00;99.90;;;;;;5006609;28;20086;-80
2023/07/25 09:51:14;;;;;;;6.45;1.17;;;19.00;99.90;;;;;;5008068;28;20394;-81
2023/07/25 09:53:53;;;;;;;5.13;1.17;;;18.90;99.90;;;;;;5006992;28;20054;-80
2023/07/25 09:56:24;;;;;;;7.28;1.25;;;18.90;99.90;;;;;;4996919;28;20057;-80
2023/07/25 09:58:51;;;;;;;7.45;1.08;;;19.00;99.90;;;;;;5007537;28;20060;-80
2023/07/25 10:01:18;;;;;;;7.05;1.13;;;19.30;99.90;;;;;;4989482;28;20041;-81
2023/07/25 10:03:44;;;;;;;6.90;0.80;;;19.60;99.90;;;;;;5008341;28;20056;-82
2023/07/25 10:06:11;;;;;;;7.53;0.85;;;19.80;99.90;;;;;;5008004;28;20130;-81
2023/07/25 10:08:42;;;;;;;8.52;1.23;;;19.70;99.90;;;;;;5007689;28;20079;-81
2023/07/25 10:11:09;;;;;;;8.68;0.90;;;19.60;99.90;;;;;;5007479;28;20418;-80
2023/07/25 10:13:35;;;;;;;5.55;0.80;;;19.50;99.90;;;;;;4974603;28;20403;-80
2023/07/25 10:16:02;;;;;;;5.68;0.70;;;19.40;99.90;;;;;;4989346;28;20048;-81
2023/07/25 10:18:31;;;;;;;5.80;0.70;;;19.40;99.90;;;;;;4989872;28;20553;-80
2023/07/25 10:20:57;;;;;;;6.90;1.00;;;19.40;99.90;;;;;;5008026;28;20597;-80
2023/07/25 10:23:37;;;;;;;6.63;1.15;;;19.40;99.90;;;;;;5006567;28;20462;-81
2023/07/25 10:26:29;;;;;;;8.10;0.93;;;19.30;99.90;;;;;;4973222;28;20429;-80
2023/07/25 10:28:58;;;;;;;5.15;0.70;;;19.30;99.90;;;;;;4995417;28;20466;-81
2023/07/25 10:31:30;;;;;;;6.03;0.93;;;19.30;99.90;;;;;;4989180;28;20045;-80
2023/07/25 10:34:00;;;;;;;6.28;0.73;;;19.30;99.90;;;;;;5008261;28;20120;-80
2023/07/25 10:36:26;;;;;;;7.53;1.05;;;19.40;99.90;;;;;;5006504;28;20085;-80
2023/07/25 10:39:09;;;;;;;5.45;0.70;;;19.20;99.90;;;;;;4989713;28;20046;-81
2023/07/25 10:41:34;;;;;;;5.03;0.70;;;18.90;99.90;;;;;;4988419;28;20095;-80
2023/07/25 10:44:01;;;;;;;3.53;0.77;;;18.80;99.90;;;;;;5006956;28;20054;-80
2023/07/25 10:46:29;;;;;;;5.18;0.70;;;18.70;99.90;;;;;;5007189;28;20141;-80
2023/07/25 10:49:14;;;;;;;4.68;0.60;;;19.00;99.90;;;;;;4989492;28;20591;-80
2023/07/25 10:51:52;;;;;;;7.47;1.15;;;19.40;99.90;;;;;;5005786;28;20510;-80
2023/07/25 10:54:19;;;;;;;9.57;1.00;;;19.80;99.90;;;;;;4990433;28;20065;-81
2023/07/25 10:57:24;;;;;;;5.63;0.98;;;19.70;99.90;;;;;;5005914;28;20100;-80
2023/07/25 10:59:59;;;;;;;7.43;1.00;;;19.60;99.90;;;;;;4923963;29;20078;-80
2023/07/25 11:02:33;;;;;;;8.10;0.90;;;19.40;99.90;;;;;;4911283;29;20138;-81
2023/07/25 11:05:28;;;;;;;6.40;0.90;;;19.20;99.90;;;;;;4980286;28;20053;-81
2023/07/25 11:07:55;;;;;;;11.05;0.98;;;19.00;99.90;;;;;;4993900;28;20104;-80
2023/07/25 11:10:25;;;;;;;4.85;0.82;;;19.10;99.90;;;;;;5006994;28;20073;-80
2023/07/25 11:12:56;;;;;;;5.35;0.90;;;19.20;99.90;;;;;;4988204;28;20049;-86
2023/07/25 11:15:23;;;;;;;6.95;0.80;;;19.40;99.90;;;;;;4988765;28;20042;-80
2023/07/25 11:17:49;;;;;;;3.42;0.80;;;19.50;99.90;;;;;;5006104;28;20132;-81
2023/07/25 11:20:21;;;;;;;5.63;0.60;;;19.80;99.90;;;;;;5007274;28;20665;-80
2023/07/25 11:22:52;;;;;;;8.73;0.90;;;19.90;99.90;;;;;;4989126;28;20046;-80
2023/07/25 11:25:18;;;;;;;5.85;0.85;;;19.90;99.90;;;;;;5006444;28;20053;-80
2023/07/25 11:27:46;;;;;;;9.27;0.90;;;19.70;99.90;;;;;;5006350;28;20046;-82
2023/07/25 11:30:20;;;;;;;8.00;0.88;;;19.40;99.90;;;;;;5006903;28;20109;-79
2023/07/25 11:32:53;;;;;;;8.52;0.93;;;19.30;99.90;;;;;;4989067;28;20049;-80
2023/07/25 11:35:19;;;;;;;;;;;19.20;99.90;;;;;;5007531;28;20037;-80
2023/07/25 11:37:46;;;;;;;6.53;0.75;;;19.00;99.90;;;;;;4989406;28;20227;-81
2023/07/25 11:40:15;;;;;;;7.32;0.98;;;18.90;99.90;;;;;;4991834;28;20123;-80
2023/07/25 11:42:45;;;;;;;5.22;0.60;;;18.80;99.90;;;;;;4992399;28;20081;-80
2023/07/25 11:45:13;;;;;;;2.92;0.77;;;18.70;99.90;;;;;;4993086;28;20081;-82
2023/07/25 11:47:41;;;;;;;6.68;0.80;;;18.80;99.90;;;;;;4992613;28;20104;-83
2023/07/25 11:50:08;;;;;;;7.18;0.88;;;18.90;99.90;;;;;;4993171;28;20060;-83
2023/07/25 11:52:36;;;;;;;9.43;0.70;;;19.10;99.90;;;;;;4992987;28;20077;-83
2023/07/25 11:55:02;;;;;;;6.40;0.90;;;19.20;99.90;;;;;;4976917;28;20057;-83
2023/07/25 11:57:28;;;;;;;5.82;1.10;;;19.30;99.90;;;;;;4991924;28;20073;-83
2023/07/25 11:59:55;;;;;;;4.05;0.80;;;19.30;99.90;;;;;;4993207;28;20947;-83
2023/07/25 12:02:24;;;;;;;7.57;0.50;;;19.20;99.90;;;;;;4975671;28;20974;-82
2023/07/25 12:04:50;;;;;;;4.32;0.68;;;19.20;99.90;;;;;;4993189;28;20042;-83
2023/07/25 12:07:16;;;;;;;5.45;0.55;;;19.40;99.90;;;;;;4990675;28;20099;-83
2023/07/25 12:10:09;;;;;;;4.72;0.70;;;19.50;99.90;;;;;;4974447;28;20054;-83
2023/07/25 12:12:41;;;;;;;5.45;0.68;;;19.60;99.90;;;;;;4988868;28;20053;-83
2023/07/25 12:15:07;;;;;;;5.63;0.80;;;19.90;99.90;;;;;;4974799;28;20121;-84
2023/07/25 12:17:43;;;;;;;4.65;0.70;;;20.20;99.90;;;;;;4991242;28;20121;-84
2023/07/25 12:20:14;;;;;;;5.07;0.77;;;20.30;99.90;;;;;;4992091;28;20073;-83
2023/07/25 12:22:39;;;;;;;5.35;0.60;;;20.40;99.90;;;;;;4975070;28;20405;-83
2023/07/25 12:25:06;;;;;;;5.40;0.70;;;20.10;99.90;;;;;;4977304;28;20519;-82
2023/07/25 12:27:31;;;;;;;6.15;0.60;;;20.00;99.90;;;;;;5009894;28;20077;-83
2023/07/25 12:29:57;;;;;;;2.60;0.63;;;20.00;99.90;;;;;;4992300;28;20185;-84
2023/07/25 12:32:23;;;;;;;3.55;0.40;;;20.20;99.90;;;;;;4976128;28;20041;-83
2023/07/25 12:34:49;;;;;;;3.65;0.52;;;20.40;99.90;;;;;;4976109;28;20099;-83
2023/07/25 12:37:14;;;;;;;4.13;0.50;;;20.70;99.90;;;;;;5009811;28;20066;-84
2023/07/25 12:39:40;;;;;;;3.90;0.60;;;20.70;99.90;;;;;;4975510;28;20054;-84
2023/07/25 12:42:06;;;;;;;4.60;0.57;;;20.60;99.90;;;;;;4976082;28;20049;-85